Seiwamaru — JL6203 — position and weather

sailwx.info

Track history (hours):
 
Tides and Currents Weather Stations Pressure Air Temp Water Temp Dewpoint Dewpoint Depression Visibility Wind Speed Wind Dir Waves Ship Positions

Seiwamaru

Last reported at 2017-Nov-18 04:00 UTC. Time now 2017-Nov-23 07:38 UTC.
Position N 34°37' E 134°59'.

Length 71 m; draft 4.6 m.

Type: Ship (hazmat cat B). MMSI: 431500282.

Date/timePositionNaut miles runAvg speedWind from/ knotsBaromVisibWave heightAir tempDewpointWater temp
2017-Nov-18 04:00N 34°37' E 134°59'5 9.1
2017-Nov-18 03:30N 34°36' E 135°04'2111.2
2017-Nov-18 01:37N 34°15' E 134°59'112.5
2017-Nov-18 01:30N 34°14' E 134°59'712.5
2017-Nov-18 00:58N 34°07' E 135°00'231 5.4
2017-Nov-16 05:59N 35°03' E 139°33'612.5
2017-Nov-16 05:28N 35°06' E 139°39'612.1
2017-Nov-16 05:00N 35°10' E 139°44'611.7
2017-Nov-16 04:30N 35°15' E 139°46'611.4
2017-Nov-16 04:00N 35°20' E 139°42'5 9.6
2017-Nov-16 03:30N 35°24' E 139°39'1 1.3
2017-Nov-16 03:00N 35°25' E 139°39'0 0.0
2017-Nov-16 02:30N 35°25' E 139°39'0 0.0
2017-Nov-16 02:00N 35°25' E 139°39'0 0.0
2017-Nov-16 01:30N 35°25' E 139°39'0 0.0
2017-Nov-16 01:00N 35°25' E 139°39'0 0.0
2017-Nov-16 00:30N 35°25' E 139°39'0 0.0
2017-Nov-16 00:00N 35°25' E 139°39'0 0.0
2017-Nov-15 23:30N 35°25' E 139°39'1 1.8
2017-Nov-15 23:00N 35°24' E 139°39'2 3.2
2017-Nov-15 22:30N 35°23' E 139°40'0 0.0
2017-Nov-15 22:00N 35°23' E 139°40'0 0.1
2017-Nov-15 21:30N 35°23' E 139°40'0 0.0
2017-Nov-15 21:00N 35°23' E 139°40'0 0.0
2017-Nov-15 20:30N 35°23' E 139°40'0 0.0
2017-Nov-15 20:00N 35°23' E 139°40'0 0.0
2017-Nov-15 19:30N 35°23' E 139°40'0 0.0
2017-Nov-15 19:00N 35°23' E 139°40'0 0.0
2017-Nov-15 18:30N 35°23' E 139°40'0 0.0
2017-Nov-15 18:00N 35°23' E 139°40'0 0.0
2017-Nov-15 17:30N 35°23' E 139°40'0 0.1
2017-Nov-15 17:00N 35°23' E 139°40'0 0.1
2017-Nov-15 16:30N 35°23' E 139°40'0 0.0
2017-Nov-15 16:00N 35°23' E 139°40'0 0.0
2017-Nov-15 15:30N 35°23' E 139°40'0 0.0
2017-Nov-15 15:00N 35°23' E 139°40'0 0.0
2017-Nov-15 14:30N 35°23' E 139°40'0 0.0
2017-Nov-15 14:00N 35°23' E 139°40'0 0.0
2017-Nov-15 13:30N 35°23' E 139°40'0 0.1
2017-Nov-15 13:00N 35°23' E 139°40'0 0.0
2017-Nov-15 12:30N 35°23' E 139°40'0 0.1
2017-Nov-15 12:00N 35°23' E 139°40'0 0.0
2017-Nov-15 11:30N 35°23' E 139°40'0 0.0
2017-Nov-15 11:00N 35°23' E 139°40'0 0.0
2017-Nov-15 10:30N 35°23' E 139°40'0 0.0
2017-Nov-15 10:00N 35°23' E 139°40'0 0.0
2017-Nov-15 09:30N 35°23' E 139°40'0 0.0
2017-Nov-15 09:00N 35°23' E 139°40'0 0.0
2017-Nov-15 08:30N 35°23' E 139°40'0 0.0
2017-Nov-15 08:00N 35°23' E 139°40'2 3.5
2017-Nov-15 07:30N 35°21' E 139°41'5 9.9
2017-Nov-15 07:00N 35°17' E 139°45'5 9.5
2017-Nov-15 06:30N 35°13' E 139°47'510.4
2017-Nov-15 06:00N 35°08' E 139°45'510.1
2017-Nov-15 05:30N 35°03' E 139°42'  
2017-Nov-12 05:44N 34°08' E 134°60'412.5
2017-Nov-12 05:24N 34°12' E 134°59'1011.2
2017-Nov-12 04:33N 34°22' E 135°00'212.1
2017-Nov-12 04:24N 34°23' E 135°02'512.1
2017-Nov-12 04:00N 34°26' E 135°06'612.6
2017-Nov-12 03:30N 34°29' E 135°13'612.4
2017-Nov-12 03:01N 34°32' E 135°20'5 9.5
2017-Nov-12 02:30N 34°33' E 135°25'0 0.2
2017-Nov-12 02:00N 34°33' E 135°26'0 0.0
2017-Nov-12 01:30N 34°33' E 135°26'0 0.0
2017-Nov-12 01:01N 34°33' E 135°26'0 0.0
2017-Nov-12 00:31N 34°33' E 135°26'0 0.0
2017-Nov-12 00:01N 34°33' E 135°26'0 0.0
2017-Nov-11 23:30N 34°33' E 135°26'0 0.0
2017-Nov-11 23:00N 34°33' E 135°26'0 0.7
2017-Nov-11 22:31N 34°33' E 135°25'5 9.4
2017-Nov-11 22:01N 34°32' E 135°20'0 0.8
2017-Nov-11 21:27N 34°32' E 135°19'0 0.0
2017-Nov-11 21:00N 34°32' E 135°19'0 0.0
2017-Nov-11 20:25N 34°32' E 135°19'0 0.0
2017-Nov-11 20:00N 34°32' E 135°19'0 0.0
2017-Nov-11 19:23N 34°32' E 135°19'0 0.0
2017-Nov-11 18:59N 34°32' E 135°19'0 0.0
2017-Nov-11 18:29N 34°32' E 135°19'0 0.0
2017-Nov-11 18:00N 34°32' E 135°19'0 0.0
2017-Nov-11 17:28N 34°32' E 135°19'0 0.0
2017-Nov-11 16:59N 34°32' E 135°19'0 0.0
2017-Nov-11 16:29N 34°32' E 135°19'3 5.4
2017-Nov-11 15:59N 34°30' E 135°17'511.0
2017-Nov-11 15:30N 34°27' E 135°11'510.7
2017-Nov-11 15:00N 34°24' E 135°06'510.4
2017-Nov-11 14:31N 34°20' E 135°02'6 9.3
2017-Nov-11 13:52N 34°15' E 134°59'4 9.8
2017-Nov-11 13:30N 34°11' E 134°59'231 8.5
2017-Nov-10 10:11N 35°03' E 139°33'211.5
2017-Nov-10 09:58N 35°04' E 139°36'511.8
2017-Nov-10 09:30N 35°07' E 139°42'611.7
2017-Nov-10 09:00N 35°12' E 139°46'611.2
2017-Nov-10 08:31N 35°17' E 139°45'611.5
2017-Nov-10 08:01N 35°23' E 139°42'611.3
2017-Nov-10 07:31N 35°27' E 139°47'12 1.4
2017-Nov-09 23:27N 35°29' E 140°00'4 0.2
2017-Nov-08 21:28N 35°30' E 139°55'0 0.1
2017-Nov-08 21:01N 35°30' E 139°55'0 0.1
2017-Nov-08 20:18N 35°30' E 139°55'0 0.1
2017-Nov-08 19:51N 35°30' E 139°55'0 0.0
2017-Nov-08 19:27N 35°30' E 139°55'0 0.1
2017-Nov-08 18:52N 35°30' E 139°55'0 0.1
2017-Nov-08 18:29N 35°30' E 139°55'0 0.0
2017-Nov-08 17:59N 35°30' E 139°55'0 0.0
2017-Nov-08 17:27N 35°30' E 139°55'0 0.0
2017-Nov-08 17:00N 35°30' E 139°55'0 0.0
2017-Nov-08 16:30N 35°30' E 139°55'0 0.0
2017-Nov-08 15:47N 35°30' E 139°55'0 0.0
2017-Nov-08 13:01N 35°30' E 139°55'0 0.0
2017-Nov-08 13:00N 35°30' E 139°55'0 0.0
2017-Nov-08 11:02N 35°30' E 139°55'0 0.6
2017-Nov-08 10:56N 35°30' E 139°55'4 9.9
2017-Nov-08 10:30N 35°31' E 139°50'3 6.7
2017-Nov-08 10:00N 35°31' E 139°46'0 0.0
2017-Nov-08 09:30N 35°31' E 139°46'0 0.0
2017-Nov-08 09:00N 35°31' E 139°46'0 0.0
2017-Nov-08 08:30N 35°31' E 139°46'0 0.0
2017-Nov-08 08:00N 35°31' E 139°46'0 0.0
2017-Nov-08 07:30N 35°31' E 139°46'0 0.0
2017-Nov-08 07:00N 35°31' E 139°46'0 0.0
2017-Nov-08 06:30N 35°31' E 139°46'0 0.0
2017-Nov-08 05:59N 35°31' E 139°46'0 0.0
2017-Nov-08 05:30N 35°31' E 139°46'2 3.8
2017-Nov-08 04:59N 35°30' E 139°48'511.3
2017-Nov-08 04:30N 35°25' E 139°46'  
Track history (hours):
 
Tides and Currents Weather Stations Pressure Air Temp Water Temp Dewpoint Dewpoint Depression Visibility Wind Speed Wind Dir Waves Ship Positions

Seiwamaru

Last reported at 2017-Nov-18 04:00 UTC. Time now 2017-Nov-23 07:38 UTC.
Position N 34°37' E 134°59'.

Length 71 m; draft 4.6 m.

Type: Ship (hazmat cat B). MMSI: 431500282.

Date/timePositionNaut miles runAvg speedWind from/ knotsBaromVisibWave heightAir tempDewpointWater temp
2017-Nov-18 04:00N 34°37' E 134°59'5 9.1
2017-Nov-18 03:30N 34°36' E 135°04'2111.2
2017-Nov-18 01:37N 34°15' E 134°59'112.5
2017-Nov-18 01:30N 34°14' E 134°59'712.5
2017-Nov-18 00:58N 34°07' E 135°00'231 5.4
2017-Nov-16 05:59N 35°03' E 139°33'612.5
2017-Nov-16 05:28N 35°06' E 139°39'612.1
2017-Nov-16 05:00N 35°10' E 139°44'611.7
2017-Nov-16 04:30N 35°15' E 139°46'611.4
2017-Nov-16 04:00N 35°20' E 139°42'5 9.6
2017-Nov-16 03:30N 35°24' E 139°39'1 1.3
2017-Nov-16 03:00N 35°25' E 139°39'0 0.0
2017-Nov-16 02:30N 35°25' E 139°39'0 0.0
2017-Nov-16 02:00N 35°25' E 139°39'0 0.0
2017-Nov-16 01:30N 35°25' E 139°39'0 0.0
2017-Nov-16 01:00N 35°25' E 139°39'0 0.0
2017-Nov-16 00:30N 35°25' E 139°39'0 0.0
2017-Nov-16 00:00N 35°25' E 139°39'0 0.0
2017-Nov-15 23:30N 35°25' E 139°39'1 1.8
2017-Nov-15 23:00N 35°24' E 139°39'2 3.2
2017-Nov-15 22:30N 35°23' E 139°40'0 0.0
2017-Nov-15 22:00N 35°23' E 139°40'0 0.1
2017-Nov-15 21:30N 35°23' E 139°40'0 0.0
2017-Nov-15 21:00N 35°23' E 139°40'0 0.0
2017-Nov-15 20:30N 35°23' E 139°40'0 0.0
2017-Nov-15 20:00N 35°23' E 139°40'0 0.0
2017-Nov-15 19:30N 35°23' E 139°40'0 0.0
2017-Nov-15 19:00N 35°23' E 139°40'0 0.0
2017-Nov-15 18:30N 35°23' E 139°40'0 0.0
2017-Nov-15 18:00N 35°23' E 139°40'0 0.0
2017-Nov-15 17:30N 35°23' E 139°40'0 0.1
2017-Nov-15 17:00N 35°23' E 139°40'0 0.1
2017-Nov-15 16:30N 35°23' E 139°40'0 0.0
2017-Nov-15 16:00N 35°23' E 139°40'0 0.0
2017-Nov-15 15:30N 35°23' E 139°40'0 0.0
2017-Nov-15 15:00N 35°23' E 139°40'0 0.0
2017-Nov-15 14:30N 35°23' E 139°40'0 0.0
2017-Nov-15 14:00N 35°23' E 139°40'0 0.0
2017-Nov-15 13:30N 35°23' E 139°40'0 0.1
2017-Nov-15 13:00N 35°23' E 139°40'0 0.0
2017-Nov-15 12:30N 35°23' E 139°40'0 0.1
2017-Nov-15 12:00N 35°23' E 139°40'0 0.0
2017-Nov-15 11:30N 35°23' E 139°40'0 0.0
2017-Nov-15 11:00N 35°23' E 139°40'0 0.0
2017-Nov-15 10:30N 35°23' E 139°40'0 0.0
2017-Nov-15 10:00N 35°23' E 139°40'0 0.0
2017-Nov-15 09:30N 35°23' E 139°40'0 0.0
2017-Nov-15 09:00N 35°23' E 139°40'0 0.0
2017-Nov-15 08:30N 35°23' E 139°40'0 0.0
2017-Nov-15 08:00N 35°23' E 139°40'2 3.5
2017-Nov-15 07:30N 35°21' E 139°41'5 9.9
2017-Nov-15 07:00N 35°17' E 139°45'5 9.5
2017-Nov-15 06:30N 35°13' E 139°47'510.4
2017-Nov-15 06:00N 35°08' E 139°45'510.1
2017-Nov-15 05:30N 35°03' E 139°42'  
2017-Nov-12 05:44N 34°08' E 134°60'412.5
2017-Nov-12 05:24N 34°12' E 134°59'1011.2
2017-Nov-12 04:33N 34°22' E 135°00'212.1
2017-Nov-12 04:24N 34°23' E 135°02'512.1
2017-Nov-12 04:00N 34°26' E 135°06'612.6
2017-Nov-12 03:30N 34°29' E 135°13'612.4
2017-Nov-12 03:01N 34°32' E 135°20'5 9.5
2017-Nov-12 02:30N 34°33' E 135°25'0 0.2
2017-Nov-12 02:00N 34°33' E 135°26'0 0.0
2017-Nov-12 01:30N 34°33' E 135°26'0 0.0
2017-Nov-12 01:01N 34°33' E 135°26'0 0.0
2017-Nov-12 00:31N 34°33' E 135°26'0 0.0
2017-Nov-12 00:01N 34°33' E 135°26'0 0.0
2017-Nov-11 23:30N 34°33' E 135°26'0 0.0
2017-Nov-11 23:00N 34°33' E 135°26'0 0.7
2017-Nov-11 22:31N 34°33' E 135°25'5 9.4
2017-Nov-11 22:01N 34°32' E 135°20'0 0.8
2017-Nov-11 21:27N 34°32' E 135°19'0 0.0
2017-Nov-11 21:00N 34°32' E 135°19'0 0.0
2017-Nov-11 20:25N 34°32' E 135°19'0 0.0
2017-Nov-11 20:00N 34°32' E 135°19'0 0.0
2017-Nov-11 19:23N 34°32' E 135°19'0 0.0
2017-Nov-11 18:59N 34°32' E 135°19'0 0.0
2017-Nov-11 18:29N 34°32' E 135°19'0 0.0
2017-Nov-11 18:00N 34°32' E 135°19'0 0.0
2017-Nov-11 17:28N 34°32' E 135°19'0 0.0
2017-Nov-11 16:59N 34°32' E 135°19'0 0.0
2017-Nov-11 16:29N 34°32' E 135°19'3 5.4
2017-Nov-11 15:59N 34°30' E 135°17'511.0
2017-Nov-11 15:30N 34°27' E 135°11'510.7
2017-Nov-11 15:00N 34°24' E 135°06'510.4
2017-Nov-11 14:31N 34°20' E 135°02'6 9.3
2017-Nov-11 13:52N 34°15' E 134°59'4 9.8
2017-Nov-11 13:30N 34°11' E 134°59'231 8.5
2017-Nov-10 10:11N 35°03' E 139°33'211.5
2017-Nov-10 09:58N 35°04' E 139°36'511.8
2017-Nov-10 09:30N 35°07' E 139°42'611.7
2017-Nov-10 09:00N 35°12' E 139°46'611.2
2017-Nov-10 08:31N 35°17' E 139°45'611.5
2017-Nov-10 08:01N 35°23' E 139°42'611.3
2017-Nov-10 07:31N 35°27' E 139°47'12 1.4
2017-Nov-09 23:27N 35°29' E 140°00'4 0.2
2017-Nov-08 21:28N 35°30' E 139°55'0 0.1
2017-Nov-08 21:01N 35°30' E 139°55'0 0.1
2017-Nov-08 20:18N 35°30' E 139°55'0 0.1
2017-Nov-08 19:51N 35°30' E 139°55'0 0.0
2017-Nov-08 19:27N 35°30' E 139°55'0 0.1
2017-Nov-08 18:52N 35°30' E 139°55'0 0.1
2017-Nov-08 18:29N 35°30' E 139°55'0 0.0
2017-Nov-08 17:59N 35°30' E 139°55'0 0.0
2017-Nov-08 17:27N 35°30' E 139°55'0 0.0
2017-Nov-08 17:00N 35°30' E 139°55'0 0.0
2017-Nov-08 16:30N 35°30' E 139°55'0 0.0
2017-Nov-08 15:47N 35°30' E 139°55'0 0.0
2017-Nov-08 13:01N 35°30' E 139°55'0 0.0
2017-Nov-08 13:00N 35°30' E 139°55'0 0.0
2017-Nov-08 11:02N 35°30' E 139°55'0 0.6
2017-Nov-08 10:56N 35°30' E 139°55'4 9.9
2017-Nov-08 10:30N 35°31' E 139°50'3 6.7
2017-Nov-08 10:00N 35°31' E 139°46'0 0.0
2017-Nov-08 09:30N 35°31' E 139°46'0 0.0
2017-Nov-08 09:00N 35°31' E 139°46'0 0.0
2017-Nov-08 08:30N 35°31' E 139°46'0 0.0
2017-Nov-08 08:00N 35°31' E 139°46'0 0.0
2017-Nov-08 07:30N 35°31' E 139°46'0 0.0
2017-Nov-08 07:00N 35°31' E 139°46'0 0.0
2017-Nov-08 06:30N 35°31' E 139°46'0 0.0
2017-Nov-08 05:59N 35°31' E 139°46'0 0.0
2017-Nov-08 05:30N 35°31' E 139°46'2 3.8
2017-Nov-08 04:59N 35°30' E 139°48'511.3
2017-Nov-08 04:30N 35°25' E 139°46'  

Dump ship's entire track history